Daneborg

KL  EN  DA
ASIAQ
Weather Now GREENLAND SURVEY
Updated [WGT/WGST] Temperature [°C] Wind [m/s] Air pressure [hPa] Relative humidity [%] Precipitation [mm]
Present Wind chill Speed Max
25.02 08:00n/an/an/an/an/an/an/a
25.02 07:00-29,4-36,92,1 ⇓3,1101054n/a
25.02 06:00-32,1-42,23,1 ⇓5,7101062n/a
25.02 05:00-30,2-39,93,1 ⇘4,1100957n/a
25.02 04:00-30,1-37,82,1 ⇓2,6100957n/a
25.02 03:00-30,1-38,92,6 ⇘3,6100957n/a
25.02 02:00-26,0-34,93,1 ⇓3,6100948n/a
25.02 01:00-28,8-36,22,1 ⇓3,6100854n/a
25.02 00:00-30,8-41,53,6 ⇘6,2100857n/a
24.02 23:00-31,6-39,52,1 ⇘3,1100860n/a
24.02 22:00-31,80,01,0 ⇘1,5100862n/a
24.02 21:00-31,1-45,16,2 ⇘7,2100861n/a
24.02 20:00-31,2-45,26,2 ⇓8,2100765n/a
24.02 19:00-30,30,01,0 ⇘2,6100759n/a
24.02 18:00-31,2-37,31,5 ⇘2,6100760n/a
24.02 17:00-33,1-41,32,1 ⇓4,6100766n/a
24.02 16:00-32,5-40,62,1 ⇓3,6100769n/a
24.02 15:00-31,7-42,63,6 ⇓4,6100665n/a
24.02 14:00-30,7-36,81,5 ⇘3,1100662n/a
24.02 13:00-32,7-44,64,1 ⇘5,1100668n/a
24.02 12:00-30,2-39,02,6 ⇓3,6100663n/a
24.02 11:00-30,7-38,52,1 ⇓2,6100664n/a
24.02 10:00-31,7-40,82,6 ⇓3,6100664n/a
24.02 09:00-32,7-42,02,6 ⇘3,1100666n/a
24.02 08:00-30,4-38,12,1 ⇓2,6100661n/a
Position: (74.3075,-20.21694444)

[Back]